Time;durP1;ratioP1;P1;durP2;ratioP2;P2;SDS_P1;SDS_P2;PMS_P1;PMS_P2;Temp;Humidity;BMP_temperature;BMP_pressure;BME280_temperature;BME280_humidity;BME280_pressure;Samples;Min_cycle;Max_cycle;Signal;HPM_P1;HPM_P2
2022/12/26 00:00:41;;;;;;;0.70;0.70;;;;;;;;;;5093807;28;20094;-89
2022/12/26 00:03:08;;;;;;;0.93;0.93;;;;;;;;;;5094035;28;20139;-89
2022/12/26 00:05:35;;;;;;;3.38;3.22;;;;;;;;;;5093770;28;20412;-89
2022/12/26 00:08:03;;;;;;;1.38;1.30;;;;;;;;;;5091688;28;20493;-90
2022/12/26 00:10:29;;;;;;;1.00;1.00;;;;;;;;;;5090697;28;20051;-90
2022/12/26 00:12:56;;;;;;;0.63;0.63;;;;;;;;;;5093737;28;20451;-89
2022/12/26 00:15:22;;;;;;;3.28;1.88;;;;;;;;;;5093697;28;20051;-89
2022/12/26 00:17:49;;;;;;;1.23;1.13;;;;;;;;;;5093445;28;20044;-89
2022/12/26 00:20:15;;;;;;;0.63;0.63;;;;;;;;;;5093610;28;20459;-89
2022/12/26 00:22:42;;;;;;;4.07;3.90;;;;;;;;;;5092986;28;20378;-88
2022/12/26 00:25:10;;;;;;;1.23;1.23;;;;;;;;;;5093420;28;20048;-88
2022/12/26 00:27:36;;;;;;;1.23;1.23;;;;;;;;;;5073638;28;20049;-88
2022/12/26 00:30:03;;;;;;;1.30;1.25;;;;;;;;;;5052649;28;20468;-88
2022/12/26 00:32:29;;;;;;;1.17;1.17;;;;;;;;;;5052935;28;20064;-88
2022/12/26 00:34:56;;;;;;;0.93;0.93;;;;;;;;;;5052696;28;20103;-88
2022/12/26 00:37:22;;;;;;;2.05;1.58;;;;;;;;;;5052964;28;20056;-88
2022/12/26 00:39:49;;;;;;;1.23;1.23;;;;;;;;;;5052927;28;20049;-88
2022/12/26 00:42:16;;;;;;;0.32;0.32;;;;;;;;;;5053015;28;20449;-88
2022/12/26 00:44:43;;;;;;;1.02;1.02;;;;;;;;;;5069721;28;20093;-88
2022/12/26 00:47:09;;;;;;;0.50;0.50;;;;;;;;;;5093182;28;20452;-89
2022/12/26 00:49:36;;;;;;;1.40;1.30;;;;;;;;;;5092781;28;20044;-89
2022/12/26 00:52:02;;;;;;;0.93;0.93;;;;;;;;;;5093209;28;20047;-89
2022/12/26 00:54:29;;;;;;;1.52;1.42;;;;;;;;;;5092769;28;20051;-89
2022/12/26 00:56:55;;;;;;;2.40;2.30;;;;;;;;;;5093261;28;20117;-90
2022/12/26 00:59:23;;;;;;;0.50;0.50;;;;;;;;;;5092952;28;20056;-89
2022/12/26 01:01:50;;;;;;;2.10;2.00;;;;;;;;;;5091625;28;20490;-89
2022/12/26 01:04:16;;;;;;;0.52;0.52;;;;;;;;;;5092943;28;20048;-88
2022/12/26 01:06:43;;;;;;;0.80;0.80;;;;;;;;;;5092540;28;20052;-88
2022/12/26 01:09:10;;;;;;;2.65;2.35;;;;;;;;;;5092438;28;20486;-88
2022/12/26 01:11:40;;;;;;;1.00;1.00;;;;;;;;;;5092607;28;20044;-88
2022/12/26 01:14:07;;;;;;;1.83;1.73;;;;;;;;;;5092687;28;20409;-88
2022/12/26 01:16:35;;;;;;;6.15;2.75;;;;;;;;;;5092502;28;20462;-89
2022/12/26 01:19:01;;;;;;;1.02;1.02;;;;;;;;;;5087698;28;20041;-88
2022/12/26 01:21:28;;;;;;;0.77;0.75;;;;;;;;;;5072433;28;20044;-88
2022/12/26 01:23:54;;;;;;;1.95;1.85;;;;;;;;;;5072398;28;20048;-88
2022/12/26 01:26:21;;;;;;;6.47;1.88;;;;;;;;;;5072395;28;20101;-88
2022/12/26 01:28:48;;;;;;;0.98;0.98;;;;;;;;;;5072359;28;20064;-88
2022/12/26 01:31:14;;;;;;;1.83;1.73;;;;;;;;;;5072584;28;20055;-88
2022/12/26 01:33:42;;;;;;;1.73;1.55;;;;;;;;;;5072013;28;20053;-88
2022/12/26 01:36:09;;;;;;;2.38;2.28;;;;;;;;;;5072159;28;20048;-88
2022/12/26 01:38:35;;;;;;;0.93;0.93;;;;;;;;;;5075679;28;20110;-88
2022/12/26 01:43:49;;;;;;;0.55;0.50;;;;;;;;;;5074138;28;20067;-88
2022/12/26 01:46:16;;;;;;;0.77;0.77;;;;;;;;;;5076359;28;20474;-89
2022/12/26 01:48:45;;;;;;;0.93;0.90;;;;;;;;;;5076327;28;20094;-89
2022/12/26 01:51:11;;;;;;;0.68;0.68;;;;;;;;;;5075838;28;20551;-89
2022/12/26 01:53:41;;;;;;;1.42;1.33;;;;;;;;;;5074916;28;20048;-89
2022/12/26 01:56:09;;;;;;;1.10;1.00;;;;;;;;;;5091646;28;20389;-89
2022/12/26 01:58:39;;;;;;;1.38;1.27;;;;;;;;;;5096228;28;20120;-88
2022/12/26 02:01:07;;;;;;;1.00;1.00;;;;;;;;;;5096277;28;20056;-88
2022/12/26 02:06:20;;;;;;;0.50;0.50;;;;;;;;;;5095550;28;20067;-88
2022/12/26 02:08:47;;;;;;;0.77;0.77;;;;;;;;;;5095784;28;20044;-88
2022/12/26 02:11:16;;;;;;;0.55;0.47;;;;;;;;;;5092913;28;20044;-88
2022/12/26 02:13:42;;;;;;;0.93;0.93;;;;;;;;;;5056330;28;20045;-88
2022/12/26 02:16:10;;;;;;;2.15;1.85;;;;;;;;;;5055711;28;20103;-88
2022/12/26 02:18:37;;;;;;;3.17;1.05;;;;;;;;;;5055558;28;20620;-88
2022/12/26 02:21:12;;;;;;;1.33;1.33;;;;;;;;;;5055666;28;20098;-89
2022/12/26 02:23:59;;;;;;;2.42;2.33;;;;;;;;;;5055212;28;20049;-88
2022/12/26 02:26:56;;;;;;;0.90;0.90;;;;;;;;;;5055198;28;20049;-89
2022/12/26 02:29:49;;;;;;;1.10;1.10;;;;;;;;;;5071716;28;20049;-88
2022/12/26 02:32:20;;;;;;;1.02;1.02;;;;;;;;;;5075004;28;20106;-88
2022/12/26 02:34:47;;;;;;;;;;;;;;;;;;5075771;28;20057;-89
2022/12/26 02:37:20;;;;;;;0.95;0.95;;;;;;;;;;5075074;28;19924;-89
2022/12/26 02:39:56;;;;;;;1.17;1.17;;;;;;;;;;5075345;28;20049;-89
2022/12/26 02:42:28;;;;;;;1.35;1.27;;;;;;;;;;5074999;28;20050;-88
2022/12/26 02:47:50;;;;;;;0.68;0.68;;;;;;;;;;5095171;28;20064;-89
2022/12/26 03:13:15;;;;;;;2.10;1.52;;;;;;;;;;5012508;28;20049;-89
2022/12/26 03:18:30;;;;;;;1.55;1.23;;;;;;;;;;5005873;28;20093;-89
2022/12/26 03:20:59;;;;;;;2.15;2.05;;;;;;;;;;4992742;28;20051;-89
2022/12/26 03:23:26;;;;;;;3.20;2.90;;;;;;;;;;4993084;28;20575;-88
2022/12/26 03:28:37;;;;;;;0.55;0.55;;;;;;;;;;4992735;28;20060;-89
2022/12/26 03:31:05;;;;;;;1.50;1.40;;;;;;;;;;4992509;28;20050;-89
2022/12/26 03:36:24;;;;;;;0.95;0.95;;;;;;;;;;5048641;28;20060;-88
2022/12/26 03:38:54;;;;;;;0.77;0.77;;;;;;;;;;5054065;28;20099;-88
2022/12/26 04:20:42;;;;;;;1.27;1.17;;;;;;;;;;5052859;28;20518;-88
2022/12/26 04:45:18;;;;;;;2.05;1.95;;;;;;;;;;5053124;28;20235;-88
2022/12/26 04:50:25;;;;;;;0.85;0.82;;;;;;;;;;5052520;28;20056;-88
2022/12/26 04:52:57;;;;;;;2.58;2.47;;;;;;;;;;5052386;28;20053;-88
2022/12/26 04:55:24;;;;;;;1.27;1.17;;;;;;;;;;5052640;28;20044;-88
2022/12/26 04:57:52;;;;;;;1.60;1.50;;;;;;;;;;5050375;28;20052;-89
2022/12/26 05:00:22;;;;;;;1.73;1.63;;;;;;;;;;5029213;28;20058;-89
2022/12/26 05:11:20;;;;;;;1.08;1.08;;;;;;;;;;5011052;28;20108;-89
2022/12/26 05:13:47;;;;;;;1.05;1.05;;;;;;;;;;5016173;28;20092;-89
2022/12/26 05:30:02;;;;;;;1.48;1.38;;;;;;;;;;5035516;28;20483;-89
2022/12/26 05:35:12;;;;;;;2.22;1.95;;;;;;;;;;5036565;28;20064;-89
2022/12/26 05:37:39;;;;;;;0.68;0.68;;;;;;;;;;5036394;28;20497;-89
2022/12/26 05:40:06;;;;;;;1.42;1.33;;;;;;;;;;5052850;28;20053;-89
2022/12/26 05:42:33;;;;;;;2.20;2.10;;;;;;;;;;5058563;28;20102;-89
2022/12/26 05:44:59;;;;;;;2.85;2.33;;;;;;;;;;5055382;28;20049;-89
2022/12/26 05:47:27;;;;;;;2.20;2.05;;;;;;;;;;5050649;28;20441;-89
2022/12/26 05:49:54;;;;;;;1.88;1.77;;;;;;;;;;5058687;28;20049;-89
2022/12/26 05:52:20;;;;;;;1.77;1.67;;;;;;;;;;5058710;28;20052;-89
2022/12/26 05:54:47;;;;;;;1.20;1.20;;;;;;;;;;5058770;28;20044;-90
2022/12/26 05:57:13;;;;;;;2.70;2.08;;;;;;;;;;5058129;28;20490;-90
2022/12/26 05:59:40;;;;;;;1.10;1.10;;;;;;;;;;5058366;28;20095;-89
2022/12/26 06:02:06;;;;;;;1.23;1.20;;;;;;;;;;5038578;28;20557;-90
2022/12/26 06:04:35;;;;;;;1.63;1.55;;;;;;;;;;5042381;28;20045;-90
2022/12/26 06:07:02;;;;;;;3.03;2.92;;;;;;;;;;5058931;28;20049;-90
2022/12/26 06:09:28;;;;;;;2.13;2.03;;;;;;;;;;5058903;28;20045;-89
2022/12/26 06:11:55;;;;;;;1.15;1.13;;;;;;;;;;5058747;28;20048;-89
2022/12/26 06:14:21;;;;;;;1.20;1.20;;;;;;;;;;5058360;28;20092;-88
2022/12/26 06:16:48;;;;;;;1.17;1.17;;;;;;;;;;5058640;28;20098;-87
2022/12/26 06:19:14;;;;;;;0.88;0.88;;;;;;;;;;5058546;28;20107;-86
2022/12/26 06:21:42;;;;;;;1.92;1.83;;;;;;;;;;5056681;28;20645;-87
2022/12/26 06:24:08;;;;;;;1.65;1.60;;;;;;;;;;5037252;28;20076;-88
2022/12/26 06:26:36;;;;;;;3.42;2.05;;;;;;;;;;5053768;28;20099;-89
2022/12/26 06:29:03;;;;;;;1.20;1.17;;;;;;;;;;5055118;28;20044;-88
2022/12/26 06:31:29;;;;;;;1.23;1.23;;;;;;;;;;5055377;28;20049;-88
2022/12/26 06:33:56;;;;;;;4.65;4.30;;;;;;;;;;5069174;28;20102;-88
2022/12/26 06:36:24;;;;;;;2.40;2.22;;;;;;;;;;5076644;28;20051;-88
2022/12/26 06:38:53;;;;;;;2.30;2.20;;;;;;;;;;5074277;28;20098;-87
2022/12/26 06:41:21;;;;;;;2.25;2.15;;;;;;;;;;5075156;28;20056;-88
2022/12/26 06:43:47;;;;;;;3.65;3.45;;;;;;;;;;5074448;28;20525;-89
2022/12/26 06:46:17;;;;;;;4.28;3.97;;;;;;;;;;5074964;28;20056;-88
2022/12/26 06:48:43;;;;;;;3.55;3.35;;;;;;;;;;5074957;28;20048;-88
2022/12/26 06:51:12;;;;;;;3.05;2.90;;;;;;;;;;5074059;28;20106;-88
2022/12/26 06:53:38;;;;;;;3.03;2.83;;;;;;;;;;5074051;28;20049;-88
2022/12/26 06:56:07;;;;;;;2.80;2.70;;;;;;;;;;5065954;28;20041;-88
2022/12/26 06:58:34;;;;;;;2.55;2.30;;;;;;;;;;5053640;28;20049;-88
2022/12/26 07:01:04;;;;;;;1.73;1.63;;;;;;;;;;5060550;28;20040;-88
2022/12/26 07:03:30;;;;;;;2.15;2.03;;;;;;;;;;5054065;28;20045;-88
2022/12/26 07:05:56;;;;;;;1.90;1.80;;;;;;;;;;5053614;28;20126;-88
2022/12/26 07:08:23;;;;;;;1.52;1.50;;;;;;;;;;5054035;28;20049;-87
2022/12/26 07:10:49;;;;;;;1.48;1.38;;;;;;;;;;5054394;28;20488;-88
2022/12/26 07:13:17;;;;;;;1.30;1.27;;;;;;;;;;5054361;28;20111;-86
2022/12/26 07:15:44;;;;;;;2.08;1.98;;;;;;;;;;5054112;28;20395;-87
2022/12/26 07:18:10;;;;;;;2.90;2.80;;;;;;;;;;5062833;28;20049;-88
2022/12/26 07:20:37;;;;;;;1.77;1.67;;;;;;;;;;5053863;28;20102;-87
2022/12/26 07:23:04;;;;;;;4.82;4.53;;;;;;;;;;5053977;28;20110;-89
2022/12/26 07:25:30;;;;;;;0.90;0.90;;;;;;;;;;5053680;28;20049;-87
2022/12/26 07:27:57;;;;;;;3.17;2.50;;;;;;;;;;5053815;28;20497;-88
2022/12/26 07:30:24;;;;;;;1.38;1.35;;;;;;;;;;5053570;28;20656;-88
2022/12/26 07:32:51;;;;;;;1.95;1.85;;;;;;;;;;5053173;28;20087;-88
2022/12/26 07:35:17;;;;;;;2.53;2.40;;;;;;;;;;5076088;28;20467;-86
2022/12/26 07:37:44;;;;;;;3.13;2.92;;;;;;;;;;5073701;28;20114;-87
2022/12/26 07:40:11;;;;;;;1.70;1.48;;;;;;;;;;5073730;28;20170;-86
2022/12/26 07:42:37;;;;;;;2.85;2.65;;;;;;;;;;5073370;28;20098;-85
2022/12/26 07:45:04;;;;;;;3.17;3.00;;;;;;;;;;5073293;28;20052;-87
2022/12/26 07:47:32;;;;;;;2.65;1.55;;;;;;;;;;5073482;28;20052;-88
2022/12/26 07:49:59;;;;;;;2.45;2.35;;;;;;;;;;5077366;28;20098;-88
2022/12/26 07:52:25;;;;;;;5.65;5.43;;;;;;;;;;5071414;28;20052;-88
2022/12/26 07:54:52;;;;;;;3.50;3.30;;;;;;;;;;5072569;28;20105;-87
2022/12/26 07:57:18;;;;;;;4.75;4.18;;;;;;;;;;5057399;28;20106;-88
2022/12/26 07:59:44;;;;;;;1.10;1.10;;;;;;;;;;5052672;28;20461;-88
2022/12/26 08:02:11;;;;;;;1.40;1.38;;;;;;;;;;5052776;28;20045;-88
2022/12/26 08:04:39;;;;;;;4.45;4.13;;;;;;;;;;5052441;28;20136;-88
2022/12/26 08:07:05;;;;;;;3.17;3.03;;;;;;;;;;5058657;28;20102;-88
2022/12/26 08:09:32;;;;;;;3.03;2.78;;;;;;;;;;5072560;28;20048;-87
2022/12/26 08:11:58;;;;;;;3.22;3.00;;;;;;;;;;5071736;28;20056;-88
2022/12/26 08:14:25;;;;;;;3.10;2.90;;;;;;;;;;5072479;28;20048;-88
2022/12/26 08:16:51;;;;;;;0.85;0.85;;;;;;;;;;5072649;28;20049;-86
2022/12/26 08:19:18;;;;;;;2.25;2.13;;;;;;;;;;5072450;28;20044;-88
2022/12/26 08:21:45;;;;;;;2.38;2.28;;;;;;;;;;5072652;28;20056;-88
2022/12/26 08:24:12;;;;;;;6.85;6.53;;;;;;;;;;5068397;28;20471;-88
2022/12/26 08:26:38;;;;;;;3.50;3.30;;;;;;;;;;5072620;28;20114;-88
2022/12/26 08:29:05;;;;;;;3.67;3.47;;;;;;;;;;5072316;28;20097;-87
2022/12/26 08:31:31;;;;;;;4.32;3.50;;;;;;;;;;5073148;28;20106;-88
2022/12/26 08:33:58;;;;;;;3.35;3.05;;;;;;;;;;5072675;28;20097;-87
2022/12/26 08:36:25;;;;;;;6.40;3.35;;;;;;;;;;5072555;28;20082;-89
2022/12/26 08:38:53;;;;;;;4.63;4.30;;;;;;;;;;5072776;28;20048;-88
2022/12/26 08:41:19;;;;;;;4.47;4.18;;;;;;;;;;5073025;28;20052;-87
2022/12/26 08:43:48;;;;;;;6.80;6.40;;;;;;;;;;5075084;28;20448;-88
2022/12/26 08:46:14;;;;;;;1.92;1.83;;;;;;;;;;5072745;28;20117;-88
2022/12/26 08:48:41;;;;;;;2.70;2.47;;;;;;;;;;5084030;28;20494;-88
2022/12/26 08:51:08;;;;;;;2.95;2.75;;;;;;;;;;5092679;28;20105;-88
2022/12/26 08:53:36;;;;;;;2.47;2.33;;;;;;;;;;5092564;28;20482;-88
2022/12/26 08:56:04;;;;;;;2.95;2.80;;;;;;;;;;5092791;28;20059;-88
2022/12/26 08:58:31;;;;;;;7.38;3.15;;;;;;;;;;5092798;28;20131;-88
2022/12/26 09:01:05;;;;;;;3.75;2.97;;;;;;;;;;5092978;28;20105;-88
2022/12/26 09:03:31;;;;;;;0.85;0.85;;;;;;;;;;5092459;28;20089;-88
2022/12/26 09:05:59;;;;;;;2.42;2.13;;;;;;;;;;5092556;28;20051;-88
2022/12/26 09:08:25;;;;;;;2.92;2.63;;;;;;;;;;5092629;28;20106;-88
2022/12/26 09:10:52;;;;;;;4.55;4.20;;;;;;;;;;5092337;28;20097;-88
2022/12/26 09:13:20;;;;;;;3.55;2.08;;;;;;;;;;5092407;28;20432;-88
2022/12/26 09:15:47;;;;;;;4.93;3.70;;;;;;;;;;5092516;28;20048;-88
2022/12/26 09:18:13;;;;;;;4.55;4.35;;;;;;;;;;5092450;28;20501;-88
2022/12/26 09:20:40;;;;;;;4.15;3.95;;;;;;;;;;5092236;28;20417;-88
2022/12/26 09:23:09;;;;;;;3.28;3.05;;;;;;;;;;5092598;28;20052;-87
2022/12/26 09:25:36;;;;;;;1.85;1.75;;;;;;;;;;5084976;28;20430;-88
2022/12/26 09:28:02;;;;;;;2.80;2.58;;;;;;;;;;5071937;28;20044;-87
2022/12/26 09:30:30;;;;;;;3.50;3.30;;;;;;;;;;5072203;28;20102;-87
2022/12/26 09:32:56;;;;;;;2.45;2.25;;;;;;;;;;5056375;28;20049;-88
2022/12/26 09:35:23;;;;;;;3.38;3.17;;;;;;;;;;5052717;28;20760;-88
2022/12/26 09:37:49;;;;;;;1.27;1.27;;;;;;;;;;5086496;28;20417;-88
2022/12/26 09:40:21;;;;;;;2.55;2.30;;;;;;;;;;5092202;28;20106;-88
2022/12/26 09:42:52;;;;;;;3.35;2.42;;;;;;;;;;5092203;28;20462;-88
2022/12/26 09:45:24;;;;;;;4.47;4.18;;;;;;;;;;5092131;28;20459;-88
2022/12/26 09:47:58;;;;;;;2.85;2.70;;;;;;;;;;5079781;28;20057;-88
2022/12/26 09:50:27;;;;;;;4.32;4.05;;;;;;;;;;5071674;28;20048;-88
2022/12/26 09:52:55;;;;;;;4.35;4.07;;;;;;;;;;5072222;28;20045;-88
2022/12/26 09:55:35;;;;;;;2.75;2.55;;;;;;;;;;5071673;28;20044;-88
2022/12/26 09:58:05;;;;;;;4.55;4.20;;;;;;;;;;5072075;28;20509;-88
2022/12/26 10:00:33;;;;;;;6.30;5.82;;;;;;;;;;5075656;28;20055;-88
2022/12/26 10:03:01;;;;;;;4.68;4.47;;;;;;;;;;5075798;28;20131;-88
2022/12/26 10:05:30;;;;;;;2.83;2.63;;;;;;;;;;5075855;28;20055;-88
2022/12/26 10:07:58;;;;;;;4.93;4.53;;;;;;;;;;5075836;28;20048;-88
2022/12/26 10:10:30;;;;;;;2.97;2.80;;;;;;;;;;5075767;28;20118;-88
2022/12/26 10:13:00;;;;;;;6.10;2.97;;;;;;;;;;5062548;28;20052;-87
2022/12/26 10:15:34;;;;;;;2.58;2.45;;;;;;;;;;5075894;28;20555;-87
2022/12/26 10:18:07;;;;;;;2.92;2.80;;;;;;;;;;5075415;28;20045;-86
2022/12/26 10:20:37;;;;;;;3.08;2.88;;;;;;;;;;5075555;28;20048;-88
2022/12/26 10:23:26;;;;;;;3.65;3.45;;;;;;;;;;5075782;28;20106;-87
2022/12/26 10:25:55;;;;;;;3.13;2.90;;;;;;;;;;5075424;28;20041;-87
2022/12/26 10:28:27;;;;;;;4.95;4.05;;;;;;;;;;5075519;28;20057;-87
2022/12/26 10:30:56;;;;;;;5.15;4.75;;;;;;;;;;5073637;28;20513;-87
2022/12/26 10:33:36;;;;;;;5.95;5.55;;;;;;;;;;5092040;28;20113;-87
2022/12/26 10:36:03;;;;;;;4.88;4.43;;;;;;;;;;5095116;28;20051;-86
2022/12/26 10:38:32;;;;;;;5.22;4.82;;;;;;;;;;5095353;28;20451;-88
2022/12/26 10:41:02;;;;;;;3.78;3.58;;;;;;;;;;5094810;28;20048;-88
2022/12/26 10:43:30;;;;;;;2.92;2.80;;;;;;;;;;5094501;28;20497;-88
2022/12/26 10:46:13;;;;;;;2.22;2.13;;;;;;;;;;5095653;28;20094;-88
2022/12/26 10:48:41;;;;;;;7.85;5.00;;;;;;;;;;5088915;28;20101;-88
2022/12/26 10:51:08;;;;;;;3.10;2.88;;;;;;;;;;5073295;28;20502;-88
2022/12/26 10:53:36;;;;;;;3.55;3.35;;;;;;;;;;5074772;28;20040;-88
2022/12/26 10:56:02;;;;;;;4.90;3.40;;;;;;;;;;5074760;28;20593;-87
2022/12/26 10:58:31;;;;;;;3.30;3.00;;;;;;;;;;5074921;28;20052;-87
2022/12/26 11:01:17;;;;;;;5.32;2.83;;;;;;;;;;5074852;28;20106;-88
2022/12/26 11:03:53;;;;;;;1.95;1.85;;;;;;;;;;5074662;28;20102;-87
2022/12/26 11:06:21;;;;;;;1.77;1.70;;;;;;;;;;5078390;28;20094;-88
2022/12/26 11:08:49;;;;;;;3.75;3.50;;;;;;;;;;5056962;28;20111;-89
2022/12/26 11:11:20;;;;;;;2.85;2.53;;;;;;;;;;5053586;28;20053;-88
2022/12/26 11:13:49;;;;;;;3.20;2.60;;;;;;;;;;5054666;28;20057;-88
2022/12/26 11:16:23;;;;;;;3.60;3.40;;;;;;;;;;5059816;28;20048;-88
2022/12/26 11:18:52;;;;;;;2.75;2.55;;;;;;;;;;5092511;28;20048;-87
2022/12/26 11:21:22;;;;;;;3.88;3.67;;;;;;;;;;5092110;28;20051;-88
2022/12/26 11:23:50;;;;;;;3.05;2.85;;;;;;;;;;5064060;28;20048;-88
2022/12/26 11:26:22;;;;;;;4.15;3.80;;;;;;;;;;5085075;28;20094;-88
2022/12/26 11:29:04;;;;;;;2.90;2.80;;;;;;;;;;5092260;28;20101;-89
2022/12/26 11:31:31;;;;;;;3.97;3.67;;;;;;;;;;5074502;28;20052;-88
2022/12/26 11:34:01;;;;;;;3.95;3.03;;;;;;;;;;5073690;28;20110;-88
2022/12/26 11:36:28;;;;;;;3.40;3.17;;;;;;;;;;5061562;28;20043;-88
2022/12/26 11:38:56;;;;;;;4.25;3.67;;;;;;;;;;5094495;28;20105;-88
2022/12/26 11:41:35;;;;;;;2.75;2.65;;;;;;;;;;5094046;28;20052;-88
2022/12/26 11:44:19;;;;;;;4.35;4.03;;;;;;;;;;5094303;28;20490;-88
2022/12/26 11:46:47;;;;;;;3.05;2.85;;;;;;;;;;5086684;28;20452;-88
2022/12/26 11:49:26;;;;;;;3.17;2.92;;;;;;;;;;5056228;28;20186;-88
2022/12/26 11:51:53;;;;;;;3.65;3.35;;;;;;;;;;5053663;28;20049;-88
2022/12/26 11:54:27;;;;;;;6.35;5.95;;;;;;;;;;5053743;28;20559;-88
2022/12/26 11:57:01;;;;;;;5.90;5.07;;;;;;;;;;5053900;28;20053;-88
2022/12/26 11:59:27;;;;;;;4.35;4.15;;;;;;;;;;5063944;28;20106;-89
2022/12/26 12:02:09;;;;;;;5.38;4.88;;;;;;;;;;5064464;28;20048;-88
2022/12/26 12:04:36;;;;;;;4.03;3.83;;;;;;;;;;5053345;28;20094;-88
2022/12/26 12:07:08;;;;;;;4.85;4.30;;;;;;;;;;5053071;28;20529;-88
2022/12/26 12:09:38;;;;;;;2.97;2.78;;;;;;;;;;5053543;28;20383;-88
2022/12/26 12:12:08;;;;;;;4.35;4.07;;;;;;;;;;5071237;28;20048;-88
2022/12/26 12:14:42;;;;;;;4.32;3.58;;;;;;;;;;5091057;28;20048;-89
2022/12/26 12:17:14;;;;;;;6.22;3.78;;;;;;;;;;5060737;28;20457;-89
2022/12/26 12:19:49;;;;;;;5.80;5.40;;;;;;;;;;5053146;28;20107;-89
2022/12/26 12:22:23;;;;;;;4.35;4.05;;;;;;;;;;5051740;28;20106;-87
2022/12/26 12:24:57;;;;;;;9.82;5.28;;;;;;;;;;5052706;28;20384;-90
2022/12/26 12:27:26;;;;;;;4.57;4.18;;;;;;;;;;5053048;28;20166;-85
2022/12/26 12:30:02;;;;;;;3.65;3.45;;;;;;;;;;5052874;28;20049;-88
2022/12/26 12:32:33;;;;;;;4.07;3.45;;;;;;;;;;5053111;28;20061;-85
2022/12/26 12:35:14;;;;;;;5.95;5.45;;;;;;;;;;5052719;28;20049;-85
2022/12/26 12:37:59;;;;;;;2.55;2.35;;;;;;;;;;5053235;28;20102;-86
2022/12/26 12:40:31;;;;;;;4.45;4.22;;;;;;;;;;5053061;28;20056;-86
2022/12/26 12:43:00;;;;;;;13.13;3.85;;;;;;;;;;5052740;28;20114;-88
2022/12/26 12:45:31;;;;;;;3.53;3.33;;;;;;;;;;5052799;28;20441;-87
2022/12/26 12:48:20;;;;;;;5.82;4.40;;;;;;;;;;5052734;28;20391;-85
2022/12/26 12:50:46;;;;;;;;;;;;;;;;;;5053169;28;20053;-88
2022/12/26 12:53:19;;;;;;;4.20;4.00;;;;;;;;;;5052955;28;19925;-85
2022/12/26 12:55:55;;;;;;;7.40;6.88;;;;;;;;;;5053002;28;20111;-85
2022/12/26 12:58:24;;;;;;;3.10;2.90;;;;;;;;;;5052437;28;20449;-84
2022/12/26 13:00:54;;;;;;;4.40;4.07;;;;;;;;;;5082637;28;20097;-84
2022/12/26 13:03:24;;;;;;;5.50;5.15;;;;;;;;;;5066541;28;20194;-84
2022/12/26 13:05:55;;;;;;;3.35;2.28;;;;;;;;;;5052457;28;20099;-87
2022/12/26 13:08:25;;;;;;;4.03;3.83;;;;;;;;;;5051825;28;20049;-86
2022/12/26 13:10:53;;;;;;;5.47;5.25;;;;;;;;;;5082838;28;20056;-84
2022/12/26 13:13:24;;;;;;;3.72;3.53;;;;;;;;;;5069439;28;20053;-84
2022/12/26 13:15:52;;;;;;;3.13;2.92;;;;;;;;;;5072348;28;20118;-85
2022/12/26 13:18:21;;;;;;;3.05;2.92;;;;;;;;;;5066408;28;20048;-84
2022/12/26 13:20:49;;;;;;;2.78;2.65;;;;;;;;;;5052332;28;20052;-84
2022/12/26 13:26:10;;;;;;;3.72;3.53;;;;;;;;;;5051927;28;20127;-85
2022/12/26 13:28:42;;;;;;;3.78;3.55;;;;;;;;;;5070575;28;20070;-86
2022/12/26 13:31:09;;;;;;;3.65;3.40;;;;;;;;;;5089532;28;20561;-85
2022/12/26 13:33:35;;;;;;;2.97;2.85;;;;;;;;;;5093221;28;20116;-85
2022/12/26 13:36:03;;;;;;;4.40;4.20;;;;;;;;;;5096265;28;20048;-86
2022/12/26 13:38:44;;;;;;;5.20;4.90;;;;;;;;;;5096711;28;20101;-86
2022/12/26 13:44:00;;;;;;;3.85;3.65;;;;;;;;;;5095557;28;20496;-87
2022/12/26 13:46:36;;;;;;;7.10;6.78;;;;;;;;;;5096481;28;20044;-86
2022/12/26 13:49:03;;;;;;;2.28;2.17;;;;;;;;;;5096140;28;20435;-86
2022/12/26 13:51:56;;;;;;;3.05;2.85;;;;;;;;;;5096533;28;20052;-87
2022/12/26 13:54:23;;;;;;;3.50;3.28;;;;;;;;;;5096337;28;20097;-87
2022/12/26 13:56:59;;;;;;;2.05;1.95;;;;;;;;;;5096168;28;20117;-87
2022/12/26 13:59:30;;;;;;;2.83;2.33;;;;;;;;;;5096162;28;20097;-86
2022/12/26 14:02:02;;;;;;;3.95;3.67;;;;;;;;;;5095546;28;20049;-86
2022/12/26 14:04:36;;;;;;;3.03;2.83;;;;;;;;;;5095582;28;20094;-86
2022/12/26 14:07:10;;;;;;;4.97;4.45;;;;;;;;;;5095454;28;20128;-87
2022/12/26 14:09:44;;;;;;;2.78;2.47;;;;;;;;;;5075844;28;20044;-86
2022/12/26 14:12:19;;;;;;;2.58;2.40;;;;;;;;;;5075770;28;20126;-86
2022/12/26 14:14:54;;;;;;;5.75;3.47;;;;;;;;;;5089800;28;20051;-86
2022/12/26 14:17:23;;;;;;;3.08;2.95;;;;;;;;;;5095702;28;20097;-87
2022/12/26 14:19:56;;;;;;;3.78;3.58;;;;;;;;;;5088530;28;20044;-86
2022/12/26 14:22:26;;;;;;;4.38;4.10;;;;;;;;;;5075275;28;20052;-86
2022/12/26 14:25:02;;;;;;;4.65;4.45;;;;;;;;;;5073806;28;20504;-88
2022/12/26 14:27:34;;;;;;;3.13;2.78;;;;;;;;;;5055315;28;20052;-87
2022/12/26 14:30:15;;;;;;;4.28;4.07;;;;;;;;;;5055656;28;20668;-86
2022/12/26 14:32:47;;;;;;;2.58;2.45;;;;;;;;;;5052121;28;20061;-86
2022/12/26 14:35:18;;;;;;;3.45;3.25;;;;;;;;;;5077634;28;20101;-87
2022/12/26 14:37:48;;;;;;;4.25;3.85;;;;;;;;;;5058164;28;20049;-88
2022/12/26 14:40:24;;;;;;;8.20;3.38;;;;;;;;;;5093775;28;20113;-87
2022/12/26 14:43:12;;;;;;;3.55;3.33;;;;;;;;;;5079829;28;20411;-87
2022/12/26 14:45:44;;;;;;;3.05;2.88;;;;;;;;;;5073681;28;20084;-86
2022/12/26 14:48:29;;;;;;;4.90;4.68;;;;;;;;;;5075093;28;20057;-86
2022/12/26 14:51:16;;;;;;;5.97;5.60;;;;;;;;;;5054745;28;20098;-87
2022/12/26 14:53:42;;;;;;;2.10;2.00;;;;;;;;;;5054553;28;20045;-87
2022/12/26 14:56:24;;;;;;;3.05;2.85;;;;;;;;;;5054570;28;20492;-87
2022/12/26 14:58:51;;;;;;;2.63;2.50;;;;;;;;;;5054162;28;20045;-86
2022/12/26 15:01:35;;;;;;;4.40;1.95;;;;;;;;;;5057351;28;20107;-86
2022/12/26 15:04:06;;;;;;;4.28;3.78;;;;;;;;;;5054418;28;20053;-87
2022/12/26 15:06:50;;;;;;;2.97;2.83;;;;;;;;;;5073910;28;20049;-86
2022/12/26 15:09:24;;;;;;;3.20;3.00;;;;;;;;;;5067163;28;20099;-86
2022/12/26 15:12:13;;;;;;;2.65;2.53;;;;;;;;;;5054437;28;20053;-86
2022/12/26 15:15:03;;;;;;;2.60;2.40;;;;;;;;;;5055374;28;20053;-86
2022/12/26 15:17:33;;;;;;;4.45;4.15;;;;;;;;;;5067887;28;20049;-86
2022/12/26 15:20:20;;;;;;;4.28;3.97;;;;;;;;;;5066705;28;20060;-87
2022/12/26 15:23:01;;;;;;;3.00;2.80;;;;;;;;;;5075232;28;20053;-87
2022/12/26 15:25:43;;;;;;;2.80;2.60;;;;;;;;;;5072642;28;20103;-87
2022/12/26 15:28:28;;;;;;;2.40;2.30;;;;;;;;;;5074374;28;20126;-86
2022/12/26 15:31:04;;;;;;;3.83;3.53;;;;;;;;;;5074200;28;20052;-87
2022/12/26 15:33:35;;;;;;;2.80;2.45;;;;;;;;;;5084341;28;20509;-87
2022/12/26 15:36:05;;;;;;;2.65;2.53;;;;;;;;;;5074570;28;20103;-87
2022/12/26 15:38:37;;;;;;;1.75;1.65;;;;;;;;;;5060250;28;20673;-87
2022/12/26 15:41:11;;;;;;;2.97;2.78;;;;;;;;;;5053565;28;20045;-87
2022/12/26 15:43:45;;;;;;;3.75;3.60;;;;;;;;;;5053576;28;20099;-87
2022/12/26 15:46:17;;;;;;;2.75;2.55;;;;;;;;;;5062921;28;20101;-87
2022/12/26 15:48:50;;;;;;;2.78;2.67;;;;;;;;;;5073624;28;20053;-86
2022/12/26 15:51:21;;;;;;;6.60;4.82;;;;;;;;;;5073191;28;20575;-88
2022/12/26 15:53:54;;;;;;;6.63;5.95;;;;;;;;;;5066812;28;20099;-87
2022/12/26 15:56:47;;;;;;;4.93;4.25;;;;;;;;;;5071738;28;20485;-87
2022/12/26 15:59:31;;;;;;;3.17;2.97;;;;;;;;;;5072764;28;20102;-87
2022/12/26 16:01:57;;;;;;;;;;;;;;;;;;5074006;28;20051;-87
2022/12/26 16:04:26;;;;;;;2.92;2.72;;;;;;;;;;5089094;28;19920;-87
2022/12/26 16:07:02;;;;;;;2.50;2.35;;;;;;;;;;5093787;28;20105;-87
2022/12/26 16:09:37;;;;;;;5.13;4.72;;;;;;;;;;5093565;28;20079;-86
2022/12/26 16:12:17;;;;;;;4.22;3.67;;;;;;;;;;5088911;28;20098;-87
2022/12/26 16:14:44;;;;;;;3.65;2.78;;;;;;;;;;5086411;28;20049;-87
2022/12/26 16:17:17;;;;;;;2.85;2.05;;;;;;;;;;5092839;28;20040;-87
2022/12/26 16:19:44;;;;;;;3.30;3.10;;;;;;;;;;5068629;28;20458;-87
2022/12/26 16:24:59;;;;;;;8.50;5.13;;;;;;;;;;5058951;28;20052;-88
2022/12/26 16:27:25;;;;;;;4.75;4.45;;;;;;;;;;5072479;28;20037;-86
2022/12/26 16:29:54;;;;;;;4.55;4.20;;;;;;;;;;5081973;28;20044;-87
2022/12/26 16:32:24;;;;;;;3.45;3.00;;;;;;;;;;5072831;28;20096;-86
2022/12/26 16:34:51;;;;;;;6.65;4.35;;;;;;;;;;5064199;28;20044;-86
2022/12/26 16:37:20;;;;;;;4.40;1.60;;;;;;;;;;5072682;28;20060;-87
2022/12/26 16:40:02;;;;;;;2.03;1.92;;;;;;;;;;5072825;28;20098;-87
2022/12/26 16:42:31;;;;;;;1.27;1.17;;;;;;;;;;5065331;28;20049;-88
2022/12/26 16:44:58;;;;;;;2.42;1.88;;;;;;;;;;5073034;28;20058;-87
2022/12/26 16:47:25;;;;;;;2.55;2.42;;;;;;;;;;5072247;28;20055;-87
2022/12/26 16:49:53;;;;;;;2.08;1.77;;;;;;;;;;5072693;28;20059;-88
2022/12/26 16:52:32;;;;;;;2.78;2.28;;;;;;;;;;5072774;28;20090;-88
2022/12/26 16:55:30;;;;;;;3.92;3.63;;;;;;;;;;5052855;28;20053;-88
2022/12/26 16:57:58;;;;;;;3.67;2.22;;;;;;;;;;5032393;28;20057;-87
2022/12/26 17:00:26;;;;;;;2.42;2.20;;;;;;;;;;5066902;28;20049;-86
2022/12/26 17:02:54;;;;;;;3.28;3.08;;;;;;;;;;5051189;28;20041;-87
2022/12/26 17:05:24;;;;;;;3.03;2.83;;;;;;;;;;5050780;28;20045;-87
2022/12/26 17:07:54;;;;;;;1.60;1.52;;;;;;;;;;5051130;28;20063;-87
2022/12/26 17:10:22;;;;;;;2.97;2.78;;;;;;;;;;5067679;28;20110;-86
2022/12/26 17:12:49;;;;;;;2.33;2.20;;;;;;;;;;5072267;28;20098;-87
2022/12/26 17:15:19;;;;;;;4.78;4.47;;;;;;;;;;5066201;28;20094;-86
2022/12/26 17:17:46;;;;;;;5.95;2.97;;;;;;;;;;5071728;28;20064;-87